createdAt,value
2023-02-25T00:00:05.625Z,999.98
2023-02-25T00:01:04.948Z,1000.07
2023-02-25T00:02:04.944Z,1000.06
2023-02-25T00:03:05.009Z,1000.04
2023-02-25T00:04:04.899Z,1000.04
2023-02-25T00:05:05.578Z,1000.00
2023-02-25T00:06:05.566Z,1000.00
2023-02-25T00:07:05.575Z,1000.00
2023-02-25T00:08:06.318Z,1000.04
2023-02-25T00:09:05.536Z,1000.02
2023-02-25T00:10:04.836Z,1000.00
2023-02-25T00:11:04.844Z,999.97
2023-02-25T00:12:05.525Z,999.99
2023-02-25T00:13:17.376Z,1000.01
2023-02-25T00:14:05.807Z,999.98
2023-02-25T00:15:05.460Z,999.98
2023-02-25T00:16:05.473Z,1000.00
2023-02-25T00:17:04.833Z,1000.01
2023-02-25T00:18:05.436Z,999.98
2023-02-25T00:19:05.420Z,999.97
2023-02-25T00:20:05.417Z,1000.01
2023-02-25T00:21:04.738Z,1000.03
2023-02-25T00:22:04.719Z,1000.01
2023-02-25T00:23:04.729Z,1000.09
2023-02-25T00:24:15.934Z,1000.04
2023-02-25T00:25:05.670Z,1000.05
2023-02-25T00:26:04.668Z,1000.09
2023-02-25T00:27:04.669Z,1000.09
2023-02-25T00:28:04.647Z,1000.05
2023-02-25T00:29:05.319Z,1000.08
2023-02-25T00:30:05.310Z,1000.06
2023-02-25T00:31:04.682Z,1000.03
2023-02-25T00:32:05.495Z,1000.08
2023-02-25T00:33:04.601Z,1000.09
2023-02-25T00:34:05.262Z,1000.13
2023-02-25T00:35:05.249Z,1000.18
2023-02-25T00:36:05.242Z,1000.22
2023-02-25T00:37:04.634Z,1000.16
2023-02-25T00:38:15.330Z,1000.16
2023-02-25T00:39:06.291Z,1000.17
2023-02-25T00:40:05.204Z,1000.21
2023-02-25T00:41:05.183Z,1000.18
2023-02-25T00:42:05.209Z,1000.20
2023-02-25T00:43:05.165Z,1000.21
2023-02-25T00:44:05.455Z,1000.25
2023-02-25T00:45:04.492Z,1000.19
2023-02-25T00:46:05.197Z,1000.19
2023-02-25T00:47:05.388Z,1000.29
2023-02-25T00:48:05.136Z,1000.27
2023-02-25T00:49:05.121Z,1000.24
2023-02-25T00:50:05.093Z,1000.23
2023-02-25T00:51:05.092Z,1000.31
2023-02-25T00:52:05.067Z,1000.30
2023-02-25T00:53:04.413Z,1000.33
2023-02-25T00:54:05.049Z,1000.32
2023-02-25T00:55:05.074Z,1000.29
2023-02-25T00:56:05.027Z,1000.33
2023-02-25T00:57:04.355Z,1000.28
2023-02-25T00:58:04.371Z,1000.35
2023-02-25T00:59:05.046Z,1000.39
2023-02-25T01:00:04.988Z,1000.38
2023-02-25T01:01:04.302Z,1000.32
2023-02-25T01:02:05.018Z,1000.35
2023-02-25T01:03:05.320Z,1000.39
2023-02-25T01:04:04.952Z,1000.42
2023-02-25T01:05:04.934Z,1000.42
2023-02-25T01:06:04.918Z,1000.46
2023-02-25T01:07:04.236Z,1000.42
2023-02-25T01:08:04.236Z,1000.51
2023-02-25T01:09:04.215Z,1000.49
2023-02-25T01:10:04.881Z,1000.48
2023-02-25T01:11:04.191Z,1000.50
2023-02-25T01:12:04.856Z,1000.43
2023-02-25T01:13:04.867Z,1000.46
2023-02-25T01:14:04.890Z,1000.45
2023-02-25T01:15:04.158Z,1000.44
2023-02-25T01:16:04.841Z,1000.50
2023-02-25T01:17:04.815Z,1000.49
2023-02-25T01:18:04.805Z,1000.49
2023-02-25T01:19:04.781Z,1000.47
2023-02-25T01:20:04.117Z,1000.43
2023-02-25T01:21:04.773Z,1000.48
2023-02-25T01:22:04.746Z,1000.46
2023-02-25T01:23:05.048Z,1000.47
2023-02-25T01:24:04.733Z,1000.44
2023-02-25T01:25:04.749Z,1000.44
2023-02-25T01:26:04.045Z,1000.47
2023-02-25T01:27:04.074Z,1000.47
2023-02-25T01:28:04.075Z,1000.46
2023-02-25T01:29:04.669Z,1000.45
2023-02-25T01:30:04.657Z,1000.35
2023-02-25T01:31:04.038Z,1000.46
2023-02-25T01:32:04.317Z,1000.42
2023-02-25T01:33:04.673Z,1000.41
2023-02-25T01:34:04.896Z,1000.47
2023-02-25T01:35:04.675Z,1000.48
2023-02-25T01:36:03.918Z,1000.48
2023-02-25T01:37:03.908Z,1000.51
2023-02-25T01:38:03.924Z,1000.56
2023-02-25T01:39:04.569Z,1000.53
2023-02-25T01:40:04.549Z,1000.56
2023-02-25T01:41:04.541Z,1000.57
2023-02-25T01:42:03.866Z,1000.56
2023-02-25T01:43:03.903Z,1000.54
2023-02-25T01:44:04.533Z,1000.54
2023-02-25T01:45:04.507Z,1000.52
2023-02-25T01:46:04.484Z,1000.53
2023-02-25T01:47:04.562Z,1000.56
2023-02-25T01:48:04.486Z,1000.59
2023-02-25T01:49:03.802Z,1000.51
2023-02-25T01:50:04.465Z,1000.56
2023-02-25T01:51:04.726Z,1000.58
2023-02-25T01:52:04.594Z,1000.59
2023-02-25T01:53:03.824Z,1000.60
2023-02-25T01:54:04.406Z,1000.60
2023-02-25T01:55:03.733Z,1000.60
2023-02-25T01:56:03.725Z,1000.60
2023-02-25T01:57:05.645Z,1000.59
2023-02-25T01:58:04.399Z,1000.62
2023-02-25T01:59:04.364Z,1000.64
2023-02-25T02:00:04.358Z,1000.65
2023-02-25T02:01:03.761Z,1000.62
2023-02-25T02:02:04.656Z,1000.62
2023-02-25T02:03:04.578Z,1000.58
2023-02-25T02:04:04.317Z,1000.56
2023-02-25T02:05:04.288Z,1000.61
2023-02-25T02:06:03.620Z,1000.64
2023-02-25T02:07:04.312Z,1000.61
2023-02-25T02:08:03.613Z,1000.61
2023-02-25T02:09:04.288Z,1000.61
2023-02-25T02:10:04.269Z,1000.59
2023-02-25T02:11:03.553Z,1000.63
2023-02-25T02:12:04.229Z,1000.58
2023-02-25T02:13:04.210Z,1000.61
2023-02-25T02:14:03.553Z,1000.58
2023-02-25T02:15:04.218Z,1000.57
2023-02-25T02:16:03.548Z,1000.53
2023-02-25T02:17:04.159Z,1000.56
2023-02-25T02:18:04.434Z,1000.51
2023-02-25T02:19:04.161Z,1000.50
2023-02-25T02:20:03.471Z,1000.47
2023-02-25T02:21:04.124Z,1000.49
2023-02-25T02:22:04.101Z,1000.51
2023-02-25T02:23:04.102Z,1000.52
2023-02-25T02:24:03.434Z,1000.54
2023-02-25T02:25:04.074Z,1000.53
2023-02-25T02:26:04.061Z,1000.51
2023-02-25T02:27:03.368Z,1000.51
2023-02-25T02:28:03.374Z,1000.52
2023-02-25T02:29:04.054Z,1000.54
2023-02-25T02:30:04.021Z,1000.49
2023-02-25T02:31:03.423Z,1000.51
2023-02-25T02:32:04.123Z,1000.51
2023-02-25T02:33:03.314Z,1000.52
2023-02-25T02:34:03.320Z,1000.53
2023-02-25T02:35:03.284Z,1000.54
2023-02-25T02:36:03.303Z,1000.54
2023-02-25T02:37:03.284Z,1000.54
2023-02-25T02:38:05.205Z,1000.57
2023-02-25T02:39:03.271Z,1000.60
2023-02-25T02:40:03.915Z,1000.63
2023-02-25T02:41:03.906Z,1000.63
2023-02-25T02:42:03.895Z,1000.63
2023-02-25T02:43:03.222Z,1000.59
2023-02-25T02:44:03.210Z,1000.60
2023-02-25T02:45:03.854Z,1000.62
2023-02-25T02:46:03.240Z,1000.54
2023-02-25T02:47:03.843Z,1000.57
2023-02-25T02:48:03.157Z,1000.58
2023-02-25T02:49:03.155Z,1000.57
2023-02-25T02:50:03.144Z,1000.52
2023-02-25T02:51:03.784Z,1000.54
2023-02-25T02:52:03.791Z,1000.53
2023-02-25T02:53:03.102Z,1000.54
2023-02-25T02:54:03.112Z,1000.53
2023-02-25T02:55:03.748Z,1000.55
2023-02-25T02:56:03.043Z,1000.54
2023-02-25T02:57:03.721Z,1000.59
2023-02-25T02:58:03.713Z,1000.59
2023-02-25T02:59:03.052Z,1000.56
2023-02-25T03:00:03.693Z,1000.58
2023-02-25T03:01:03.046Z,1000.62
2023-02-25T03:02:03.932Z,1000.66
2023-02-25T03:03:03.660Z,1000.64
2023-02-25T03:04:03.733Z,1000.69
2023-02-25T03:05:02.977Z,1000.69
2023-02-25T03:06:03.621Z,1000.68
2023-02-25T03:07:03.624Z,1000.70
2023-02-25T03:08:03.600Z,1000.75
2023-02-25T03:09:03.617Z,1000.66
2023-02-25T03:10:02.902Z,1000.70
2023-02-25T03:11:03.574Z,1000.68
2023-02-25T03:12:03.557Z,1000.69
2023-02-25T03:13:03.569Z,1000.65
2023-02-25T03:14:03.567Z,1000.64
2023-02-25T03:15:02.844Z,1000.61
2023-02-25T03:16:02.899Z,1000.66
2023-02-25T03:17:03.566Z,1000.63
2023-02-25T03:18:02.811Z,1000.68
2023-02-25T03:19:03.515Z,1000.67
2023-02-25T03:20:03.474Z,1000.60
2023-02-25T03:21:02.781Z,1000.62
2023-02-25T03:22:02.785Z,1000.72
2023-02-25T03:23:03.459Z,1000.67
2023-02-25T03:24:02.792Z,1000.71
2023-02-25T03:25:03.429Z,1000.74
2023-02-25T03:26:02.760Z,1000.72
2023-02-25T03:27:02.716Z,1000.67
2023-02-25T03:28:02.719Z,1000.73
2023-02-25T03:29:02.730Z,1000.77
2023-02-25T03:30:02.704Z,1000.76
2023-02-25T03:31:03.396Z,1000.71
2023-02-25T03:32:03.483Z,1000.66
2023-02-25T03:33:03.354Z,1000.71
2023-02-25T03:34:02.666Z,1000.79
2023-02-25T03:35:03.341Z,1000.72
2023-02-25T03:36:03.319Z,1000.83
2023-02-25T03:37:03.294Z,1000.84
2023-02-25T03:38:03.295Z,1000.79
2023-02-25T03:39:03.291Z,1000.82
2023-02-25T03:40:02.653Z,1000.80
2023-02-25T03:41:02.614Z,1000.90
2023-02-25T03:42:03.248Z,1000.86
2023-02-25T03:43:03.227Z,1000.85
2023-02-25T03:44:03.495Z,1000.85
2023-02-25T03:45:02.576Z,1000.90
2023-02-25T03:46:03.517Z,1000.88
2023-02-25T03:47:04.494Z,1000.93
2023-02-25T03:48:03.189Z,1000.92
2023-02-25T03:49:03.181Z,1000.93
2023-02-25T03:50:03.179Z,1000.93
2023-02-25T03:51:02.466Z,1000.92
2023-02-25T03:52:03.142Z,1000.93
2023-02-25T03:53:03.130Z,1000.98
2023-02-25T03:54:02.448Z,1000.96
2023-02-25T03:55:03.125Z,1001.01
2023-02-25T03:56:03.105Z,1001.01
2023-02-25T03:57:03.074Z,1000.96
2023-02-25T03:58:03.077Z,1000.96
2023-02-25T03:59:03.054Z,1000.96
2023-02-25T04:00:03.072Z,1001.01
2023-02-25T04:01:02.344Z,1000.98
2023-02-25T04:02:02.387Z,1001.03
2023-02-25T04:03:02.337Z,1001.01
2023-02-25T04:04:03.007Z,1001.07
2023-02-25T04:05:02.364Z,1001.04
2023-02-25T04:06:02.984Z,1001.02
2023-02-25T04:07:02.282Z,1001.04
2023-02-25T04:08:02.283Z,1000.98
2023-02-25T04:09:02.952Z,1000.90
2023-02-25T04:10:02.958Z,1001.03
2023-02-25T04:11:02.246Z,1001.01
2023-02-25T04:12:02.264Z,1001.01
2023-02-25T04:13:02.224Z,1000.98
2023-02-25T04:14:02.883Z,1000.99
2023-02-25T04:15:02.216Z,1000.99
2023-02-25T04:16:02.909Z,1001.05
2023-02-25T04:17:03.167Z,1001.07
2023-02-25T04:18:02.846Z,1001.08
2023-02-25T04:19:02.189Z,1001.04
2023-02-25T04:20:02.227Z,1001.03
2023-02-25T04:21:02.283Z,1001.04
2023-02-25T04:22:02.805Z,1001.09
2023-02-25T04:23:02.136Z,1001.08
2023-02-25T04:24:02.782Z,1001.10
2023-02-25T04:25:02.156Z,1001.13
2023-02-25T04:26:02.132Z,1001.19
2023-02-25T04:27:02.743Z,1001.17
2023-02-25T04:28:02.735Z,1001.13
2023-02-25T04:29:02.749Z,1001.11
2023-02-25T04:30:03.549Z,1001.13
2023-02-25T04:31:02.902Z,1001.12
2023-02-25T04:32:02.812Z,1001.11
2023-02-25T04:33:02.701Z,1001.12
2023-02-25T04:34:02.006Z,1001.12
2023-02-25T04:35:02.690Z,1001.16
2023-02-25T04:36:02.705Z,1001.17
2023-02-25T04:37:01.989Z,1001.18
2023-02-25T04:38:01.981Z,1001.20
2023-02-25T04:39:02.624Z,1001.25
2023-02-25T04:40:02.645Z,1001.26
2023-02-25T04:41:01.972Z,1001.19
2023-02-25T04:42:02.643Z,1001.23
2023-02-25T04:43:01.910Z,1001.20
2023-02-25T04:44:02.571Z,1001.22
2023-02-25T04:45:02.558Z,1001.29
2023-02-25T04:46:01.912Z,1001.27
2023-02-25T04:47:02.798Z,1001.27
2023-02-25T04:48:02.518Z,1001.26
2023-02-25T04:49:02.509Z,1001.25
2023-02-25T04:50:02.788Z,1001.20
2023-02-25T04:51:02.512Z,1001.27
2023-02-25T04:52:01.864Z,1001.21
2023-02-25T04:53:02.477Z,1001.21
2023-02-25T04:54:02.459Z,1001.25
2023-02-25T04:55:01.769Z,1001.24
2023-02-25T04:56:02.451Z,1001.21
2023-02-25T04:57:02.425Z,1001.26
2023-02-25T04:58:03.727Z,1001.29
2023-02-25T04:59:02.428Z,1001.30
2023-02-25T05:00:01.711Z,1001.28
2023-02-25T05:01:02.410Z,1001.26
2023-02-25T05:02:01.794Z,1001.33
2023-02-25T05:03:01.760Z,1001.27
2023-02-25T05:04:02.372Z,1001.25
2023-02-25T05:05:02.392Z,1001.25
2023-02-25T05:06:10.461Z,1001.25
2023-02-25T05:07:03.314Z,1001.22
2023-02-25T05:08:02.307Z,1001.31
2023-02-25T05:09:02.293Z,1001.27
2023-02-25T05:10:01.635Z,1001.28
2023-02-25T05:11:01.666Z,1001.27
2023-02-25T05:12:02.283Z,1001.23
2023-02-25T05:13:01.606Z,1001.25
2023-02-25T05:14:02.246Z,1001.27
2023-02-25T05:15:01.556Z,1001.27
2023-02-25T05:16:02.297Z,1001.28
2023-02-25T05:17:01.548Z,1001.31
2023-02-25T05:18:02.204Z,1001.24
2023-02-25T05:19:02.190Z,1001.31
2023-02-25T05:20:02.298Z,1001.30
2023-02-25T05:21:01.520Z,1001.33
2023-02-25T05:22:01.576Z,1001.33
2023-02-25T05:23:01.457Z,1001.34
2023-02-25T05:24:01.485Z,1001.37
2023-02-25T05:25:02.129Z,1001.35
2023-02-25T05:26:01.457Z,1001.36
2023-02-25T05:27:02.129Z,1001.47
2023-02-25T05:28:02.089Z,1001.45
2023-02-25T05:29:02.087Z,1001.39
2023-02-25T05:30:01.555Z,1001.49
2023-02-25T05:31:02.173Z,1001.48
2023-02-25T05:32:02.421Z,1001.50
2023-02-25T05:33:02.076Z,1001.51
2023-02-25T05:34:01.433Z,1001.48
2023-02-25T05:35:01.348Z,1001.53
2023-02-25T05:36:02.007Z,1001.54
2023-02-25T05:37:01.349Z,1001.52
2023-02-25T05:38:02.009Z,1001.51
2023-02-25T05:39:01.977Z,1001.55
2023-02-25T05:40:01.975Z,1001.52
2023-02-25T05:41:01.966Z,1001.57
2023-02-25T05:42:01.281Z,1001.57
2023-02-25T05:43:01.939Z,1001.58
2023-02-25T05:44:02.199Z,1001.56
2023-02-25T05:45:01.914Z,1001.61
2023-02-25T05:46:01.211Z,1001.62
2023-02-25T05:47:01.262Z,1001.66
2023-02-25T05:48:01.880Z,1001.64
2023-02-25T05:49:01.866Z,1001.63
2023-02-25T05:50:01.234Z,1001.67
2023-02-25T05:51:01.178Z,1001.64
2023-02-25T05:52:01.851Z,1001.60
2023-02-25T05:53:01.150Z,1001.57
2023-02-25T05:54:01.814Z,1001.60
2023-02-25T05:55:01.801Z,1001.63
2023-02-25T05:56:01.789Z,1001.59
2023-02-25T05:57:01.801Z,1001.61
2023-02-25T05:58:01.091Z,1001.57
2023-02-25T05:59:01.081Z,1001.62
2023-02-25T06:00:01.084Z,1001.64
2023-02-25T06:01:01.733Z,1001.65
2023-02-25T06:02:01.793Z,1001.68
2023-02-25T06:03:01.069Z,1001.68
2023-02-25T06:04:01.709Z,1001.71
2023-02-25T06:05:01.701Z,1001.71
2023-02-25T06:06:01.678Z,1001.75
2023-02-25T06:07:01.682Z,1001.75
2023-02-25T06:08:01.666Z,1001.78
2023-02-25T06:09:01.641Z,1001.77
2023-02-25T06:10:01.058Z,1001.76
2023-02-25T06:11:01.623Z,1001.75
2023-02-25T06:12:01.634Z,1001.68
2023-02-25T06:13:01.601Z,1001.70
2023-02-25T06:14:01.604Z,1001.72
2023-02-25T06:15:01.584Z,1001.73
2023-02-25T06:16:00.920Z,1001.74
2023-02-25T06:17:02.838Z,1001.75
2023-02-25T06:18:01.552Z,1001.81
2023-02-25T06:19:01.551Z,1001.78
2023-02-25T06:20:01.530Z,1001.90
2023-02-25T06:21:01.514Z,1001.95
2023-02-25T06:22:00.860Z,1002.07
2023-02-25T06:23:01.507Z,1002.17
2023-02-25T06:24:00.794Z,1002.26
2023-02-25T06:25:01.474Z,1002.34
2023-02-25T06:26:01.466Z,1002.40
2023-02-25T06:27:01.477Z,1002.40
2023-02-25T06:28:00.771Z,1002.42
2023-02-25T06:29:01.695Z,1002.42
2023-02-25T06:30:01.421Z,1002.38
2023-02-25T06:31:01.482Z,1002.41
2023-02-25T06:32:01.611Z,1002.34
2023-02-25T06:33:01.384Z,1002.39
2023-02-25T06:34:00.729Z,1002.35
2023-02-25T06:35:01.620Z,1002.32
2023-02-25T06:36:01.373Z,1002.24
2023-02-25T06:37:00.704Z,1002.22
2023-02-25T06:38:01.337Z,1002.21
2023-02-25T06:39:01.988Z,1002.33
2023-02-25T06:40:01.545Z,1002.29
2023-02-25T06:41:01.474Z,1002.31
2023-02-25T06:42:00.659Z,1002.31
2023-02-25T06:43:00.715Z,1002.26
2023-02-25T06:44:02.035Z,1002.23
2023-02-25T06:45:00.600Z,1002.32
2023-02-25T06:46:02.089Z,1002.34
2023-02-25T06:47:00.613Z,1002.35
2023-02-25T06:48:00.579Z,1002.41
2023-02-25T06:49:01.220Z,1002.34
2023-02-25T06:50:02.594Z,1002.33
2023-02-25T06:51:00.561Z,1002.27
2023-02-25T06:52:00.568Z,1002.30
2023-02-25T06:53:00.548Z,1002.30
2023-02-25T06:54:02.456Z,1002.35
2023-02-25T06:55:00.496Z,1002.37
2023-02-25T06:56:01.148Z,1002.36
2023-02-25T06:57:00.467Z,1002.41
2023-02-25T06:58:01.180Z,1002.45
2023-02-25T06:59:01.134Z,1002.45
2023-02-25T07:00:00.435Z,1002.46
2023-02-25T07:01:01.122Z,1002.48
2023-02-25T07:02:01.081Z,1002.55
2023-02-25T07:03:01.109Z,1002.49
2023-02-25T07:04:01.104Z,1002.50
2023-02-25T07:05:00.359Z,1002.59
2023-02-25T07:06:00.350Z,1002.56
2023-02-25T07:07:00.346Z,1002.58
2023-02-25T07:08:01.037Z,1002.59
2023-02-25T07:09:01.012Z,1002.60
2023-02-25T07:10:00.999Z,1002.59
2023-02-25T07:11:00.981Z,1002.60
2023-02-25T07:12:00.971Z,1002.64
2023-02-25T07:13:00.984Z,1002.65
2023-02-25T07:14:00.284Z,1002.71
2023-02-25T07:15:00.943Z,1002.67
2023-02-25T07:16:00.285Z,1002.69
2023-02-25T07:17:00.249Z,1002.72
2023-02-25T07:18:00.249Z,1002.74
2023-02-25T07:19:00.903Z,1002.74
2023-02-25T07:20:00.199Z,1002.79
2023-02-25T07:21:00.894Z,1002.79
2023-02-25T07:22:00.873Z,1002.82
2023-02-25T07:23:00.884Z,1002.80
2023-02-25T07:24:00.841Z,1002.79
2023-02-25T07:25:00.233Z,1002.83
2023-02-25T07:26:00.822Z,1002.84
2023-02-25T07:27:00.160Z,1002.85
2023-02-25T07:28:00.828Z,1002.91
2023-02-25T07:29:00.799Z,1002.86
2023-02-25T07:30:00.172Z,1002.86
2023-02-25T07:31:00.153Z,1002.81
2023-02-25T07:32:00.908Z,1002.88
2023-02-25T07:33:00.181Z,1002.89
2023-02-25T07:34:00.113Z,1002.89
2023-02-25T07:35:00.732Z,1002.95
2023-02-25T07:36:00.711Z,1002.92
2023-02-25T07:37:00.704Z,1002.94
2023-02-25T07:38:00.859Z,1002.93
2023-02-25T07:39:00.946Z,1003.05
2023-02-25T07:39:59.995Z,1003.00
2023-02-25T07:41:00.667Z,1002.99
2023-02-25T07:42:00.650Z,1002.97
2023-02-25T07:43:00.665Z,1003.01
2023-02-25T07:44:00.638Z,1003.01
2023-02-25T07:45:02.299Z,1003.10
2023-02-25T07:45:59.939Z,1003.08
2023-02-25T07:47:00.611Z,1003.10
2023-02-25T07:48:00.619Z,1003.12
2023-02-25T07:49:00.581Z,1003.14
2023-02-25T07:49:59.914Z,1003.14
2023-02-25T07:51:00.803Z,1003.13
2023-02-25T07:52:00.554Z,1003.19
2023-02-25T07:53:00.571Z,1003.15
2023-02-25T07:53:59.846Z,1003.12
2023-02-25T07:55:00.521Z,1003.16
2023-02-25T07:55:59.851Z,1003.17
2023-02-25T07:57:00.498Z,1003.21
2023-02-25T07:57:59.825Z,1003.20
2023-02-25T07:59:00.472Z,1003.23
2023-02-25T08:00:00.466Z,1003.14
2023-02-25T08:00:59.773Z,1003.19
2023-02-25T08:02:00.697Z,1003.16
2023-02-25T08:03:00.482Z,1003.18
2023-02-25T08:04:00.484Z,1003.26
2023-02-25T08:05:01.694Z,1003.35
2023-02-25T08:06:00.432Z,1003.38
2023-02-25T08:07:00.394Z,1003.38
2023-02-25T08:07:59.722Z,1003.42
2023-02-25T08:09:00.369Z,1003.45
2023-02-25T08:10:00.360Z,1003.46
2023-02-25T08:10:59.658Z,1003.60
2023-02-25T08:11:59.654Z,1003.58
2023-02-25T08:13:00.324Z,1003.50
2023-02-25T08:14:00.344Z,1003.50
2023-02-25T08:14:59.624Z,1003.50
2023-02-25T08:16:00.316Z,1003.50
2023-02-25T08:17:00.284Z,1003.49
2023-02-25T08:18:00.265Z,1003.52
2023-02-25T08:18:59.617Z,1003.53
2023-02-25T08:19:59.573Z,1003.50
2023-02-25T08:21:02.556Z,1003.52
2023-02-25T08:21:59.563Z,1003.53
2023-02-25T08:23:00.224Z,1003.50
2023-02-25T08:24:00.501Z,1003.53
2023-02-25T08:25:00.195Z,1003.55
2023-02-25T08:26:00.469Z,1003.54
2023-02-25T08:27:00.173Z,1003.59
2023-02-25T08:28:00.165Z,1003.56
2023-02-25T08:29:00.176Z,1003.60
2023-02-25T08:29:59.494Z,1003.61
2023-02-25T08:31:00.270Z,1003.67
2023-02-25T08:32:00.309Z,1003.60
2023-02-25T08:33:00.153Z,1003.60
2023-02-25T08:34:00.123Z,1003.64
2023-02-25T08:35:00.358Z,1003.65
2023-02-25T08:36:00.109Z,1003.61
2023-02-25T08:37:00.298Z,1003.60
2023-02-25T08:38:00.298Z,1003.64
2023-02-25T08:39:00.322Z,1003.64
2023-02-25T08:40:00.035Z,1003.76
2023-02-25T08:41:01.289Z,1003.66
2023-02-25T08:41:59.354Z,1003.68
2023-02-25T08:43:00.119Z,1003.74
2023-02-25T08:44:00.552Z,1003.70
2023-02-25T08:45:00.300Z,1003.72
2023-02-25T08:46:01.493Z,1003.67
2023-02-25T08:46:59.285Z,1003.72
2023-02-25T08:47:59.268Z,1003.73
2023-02-25T08:48:59.298Z,1003.74
2023-02-25T08:49:59.927Z,1003.77
2023-02-25T08:51:00.779Z,1003.74
2023-02-25T08:52:00.947Z,1003.72
2023-02-25T08:53:00.127Z,1003.71
2023-02-25T08:54:00.385Z,1003.70
2023-02-25T08:55:02.282Z,1003.69
2023-02-25T08:55:59.365Z,1003.77
2023-02-25T08:56:59.323Z,1003.83
2023-02-25T08:58:00.128Z,1003.83
2023-02-25T08:59:01.053Z,1003.84
2023-02-25T08:59:59.821Z,1003.81
2023-02-25T09:01:03.452Z,1003.87
2023-02-25T09:02:01.400Z,1003.80
2023-02-25T09:02:59.351Z,1003.81
2023-02-25T09:04:00.724Z,1003.86
2023-02-25T09:05:00.383Z,1003.81
2023-02-25T09:06:00.134Z,1003.83
2023-02-25T09:06:59.129Z,1003.86
2023-02-25T09:08:00.095Z,1003.85
2023-02-25T09:08:59.110Z,1003.92
2023-02-25T09:09:59.731Z,1004.02
2023-02-25T09:10:59.478Z,1003.98
2023-02-25T09:11:59.030Z,1004.00
2023-02-25T09:13:02.139Z,1004.05
2023-02-25T09:13:59.222Z,1004.00
2023-02-25T09:14:59.130Z,1004.01
2023-02-25T09:16:00.094Z,1004.05
2023-02-25T09:17:00.847Z,1004.12
2023-02-25T09:17:59.742Z,1004.04
2023-02-25T09:19:01.846Z,1004.10
2023-02-25T09:19:59.808Z,1004.24
2023-02-25T09:20:59.613Z,1004.06
2023-02-25T09:22:05.098Z,1004.18
2023-02-25T09:22:59.104Z,1004.24
2023-02-25T09:23:59.562Z,1004.33
2023-02-25T09:24:59.044Z,1004.30
2023-02-25T09:25:59.534Z,1004.23
2023-02-25T09:26:58.862Z,1004.27
2023-02-25T09:27:58.863Z,1004.32
2023-02-25T09:28:59.583Z,1004.36
2023-02-25T09:29:58.849Z,1004.37
2023-02-25T09:31:00.757Z,1004.24
2023-02-25T09:31:59.618Z,1004.27
2023-02-25T09:32:59.606Z,1004.23
2023-02-25T09:33:59.479Z,1004.31
2023-02-25T09:35:01.361Z,1004.24
2023-02-25T09:35:59.425Z,1004.33
2023-02-25T09:36:59.414Z,1004.31
2023-02-25T09:37:59.405Z,1004.32
2023-02-25T09:38:59.409Z,1004.27
2023-02-25T09:39:58.736Z,1004.34
2023-02-25T09:40:58.709Z,1004.37
2023-02-25T09:41:59.364Z,1004.40
2023-02-25T09:42:59.366Z,1004.30
2023-02-25T09:43:58.892Z,1004.38
2023-02-25T09:44:59.356Z,1004.29
2023-02-25T09:45:58.740Z,1004.37
2023-02-25T09:46:58.683Z,1004.42
2023-02-25T09:47:59.390Z,1004.48
2023-02-25T09:48:59.297Z,1004.45
2023-02-25T09:50:00.627Z,1004.44
2023-02-25T09:50:58.904Z,1004.64
2023-02-25T09:52:01.549Z,1004.56
2023-02-25T09:52:59.474Z,1004.73
2023-02-25T09:53:58.639Z,1004.60
2023-02-25T09:54:59.255Z,1004.66
2023-02-25T09:55:59.341Z,1004.60
2023-02-25T09:56:59.239Z,1004.71
2023-02-25T09:57:58.534Z,1004.62
2023-02-25T09:58:59.195Z,1004.80
2023-02-25T09:59:59.209Z,1004.79
2023-02-25T10:00:58.525Z,1004.85
2023-02-25T10:01:58.509Z,1004.68
2023-02-25T10:02:58.594Z,1004.78
2023-02-25T10:03:58.470Z,1004.76
2023-02-25T10:04:58.475Z,1004.85
2023-02-25T10:05:58.445Z,1005.06
2023-02-25T10:06:59.105Z,1004.86
2023-02-25T10:07:58.425Z,1004.89
2023-02-25T10:08:58.436Z,1005.17
2023-02-25T10:09:58.498Z,1004.92
2023-02-25T10:10:59.070Z,1004.95
2023-02-25T10:11:59.039Z,1004.99
2023-02-25T10:12:59.027Z,1004.98
2023-02-25T10:13:59.029Z,1004.86
2023-02-25T10:14:59.049Z,1005.26
2023-02-25T10:15:59.003Z,1005.04
2023-02-25T10:16:59.034Z,1005.06
2023-02-25T10:18:24.328Z,1005.04
2023-02-25T10:18:58.980Z,1005.04
2023-02-25T10:19:58.284Z,1005.06
2023-02-25T10:20:58.374Z,1005.01
2023-02-25T10:21:58.349Z,1005.08
2023-02-25T10:22:58.947Z,1005.09
2023-02-25T10:23:58.921Z,1005.13
2023-02-25T10:24:58.934Z,1005.07
2023-02-25T10:25:58.914Z,1005.06
2023-02-25T10:26:58.885Z,1004.98
2023-02-25T10:27:58.876Z,1005.13
2023-02-25T10:28:58.870Z,1005.13
2023-02-25T10:29:58.862Z,1005.11
2023-02-25T10:30:58.325Z,1005.01
2023-02-25T10:31:58.343Z,1005.13
2023-02-25T10:32:58.871Z,1005.14
2023-02-25T10:33:58.801Z,1005.14
2023-02-25T10:34:58.792Z,1005.17
2023-02-25T10:35:58.815Z,1005.26
2023-02-25T10:36:58.128Z,1005.25
2023-02-25T10:37:58.775Z,1005.32
2023-02-25T10:38:58.753Z,1005.09
2023-02-25T10:39:58.060Z,1005.21
2023-02-25T10:40:58.093Z,1005.44
2023-02-25T10:41:58.742Z,1005.33
2023-02-25T10:42:59.475Z,1005.29
2023-02-25T10:43:58.078Z,1005.38
2023-02-25T10:44:58.698Z,1005.34
2023-02-25T10:45:58.103Z,1005.44
2023-02-25T10:46:58.684Z,1005.45
2023-02-25T10:47:58.654Z,1005.47
2023-02-25T10:48:58.644Z,1005.51
2023-02-25T10:49:58.634Z,1005.37
2023-02-25T10:50:58.622Z,1005.43
2023-02-25T10:51:57.993Z,1005.43
2023-02-25T10:52:57.950Z,1005.39
2023-02-25T10:53:58.593Z,1005.40
2023-02-25T10:54:57.916Z,1005.45
2023-02-25T10:55:57.955Z,1005.31
2023-02-25T10:56:57.921Z,1005.33
2023-02-25T10:57:58.544Z,1005.40
2023-02-25T10:58:58.534Z,1005.50
2023-02-25T10:59:57.855Z,1005.41
2023-02-25T11:00:58.514Z,1005.46
2023-02-25T11:01:57.955Z,1005.55
2023-02-25T11:02:57.965Z,1005.50
2023-02-25T11:03:57.835Z,1005.53
2023-02-25T11:04:58.467Z,1005.49
2023-02-25T11:05:57.840Z,1005.53
2023-02-25T11:06:58.477Z,1005.50
2023-02-25T11:07:57.830Z,1005.52
2023-02-25T11:08:57.797Z,1005.50
2023-02-25T11:09:58.416Z,1005.56
2023-02-25T11:10:58.420Z,1005.55
2023-02-25T11:11:58.439Z,1005.54
2023-02-25T11:12:58.387Z,1005.54
2023-02-25T11:13:57.723Z,1005.56
2023-02-25T11:14:58.359Z,1005.60
2023-02-25T11:15:57.754Z,1005.76
2023-02-25T11:16:58.375Z,1005.70
2023-02-25T11:17:58.337Z,1005.58
2023-02-25T11:18:57.723Z,1005.67
2023-02-25T11:19:58.311Z,1005.61
2023-02-25T11:20:58.299Z,1005.62
2023-02-25T11:21:57.709Z,1005.67
2023-02-25T11:22:58.286Z,1005.79
2023-02-25T11:23:58.270Z,1005.71
2023-02-25T11:24:57.599Z,1005.73
2023-02-25T11:25:58.251Z,1005.75
2023-02-25T11:26:58.258Z,1005.72
2023-02-25T11:27:58.223Z,1005.68
2023-02-25T11:28:57.529Z,1005.88
2023-02-25T11:29:57.538Z,1005.74
2023-02-25T11:30:57.664Z,1005.79
2023-02-25T11:31:58.310Z,1005.72
2023-02-25T11:32:57.513Z,1005.49
2023-02-25T11:33:58.172Z,1005.65
2023-02-25T11:34:58.141Z,1005.75
2023-02-25T11:35:57.470Z,1005.84
2023-02-25T11:36:57.514Z,1005.89
2023-02-25T11:37:57.442Z,1005.79
2023-02-25T11:38:57.452Z,1005.80
2023-02-25T11:39:57.482Z,1005.76
2023-02-25T11:40:58.081Z,1005.77
2023-02-25T11:41:58.094Z,1005.66
2023-02-25T11:42:58.068Z,1005.72
2023-02-25T11:43:57.402Z,1005.81
2023-02-25T11:44:58.043Z,1005.85
2023-02-25T11:45:58.036Z,1005.80
2023-02-25T11:46:57.357Z,1005.81
2023-02-25T11:47:57.320Z,1005.80
2023-02-25T11:48:57.342Z,1005.91
2023-02-25T11:49:57.980Z,1005.86
2023-02-25T11:50:57.969Z,1005.89
2023-02-25T11:51:57.984Z,1005.78
2023-02-25T11:52:57.358Z,1005.85
2023-02-25T11:53:57.283Z,1005.80
2023-02-25T11:54:57.930Z,1006.02
2023-02-25T11:55:57.273Z,1006.02
2023-02-25T11:56:57.932Z,1005.98
2023-02-25T11:57:57.893Z,1006.03
2023-02-25T11:58:57.244Z,1005.98
2023-02-25T11:59:57.875Z,1005.89
2023-02-25T12:00:57.863Z,1005.96
2023-02-25T12:01:57.216Z,1006.00
2023-02-25T12:02:57.219Z,1005.94
2023-02-25T12:03:57.141Z,1006.05
2023-02-25T12:04:57.131Z,1006.10
2023-02-25T12:06:01.938Z,1006.00